Time;durP1;ratioP1;P1;durP2;ratioP2;P2;SDS_P1;SDS_P2;PMS_P1;PMS_P2;Temp;Humidity;BMP_temperature;BMP_pressure;BME280_temperature;BME280_humidity;BME280_pressure;Samples;Min_cycle;Max_cycle;Signal;HPM_P1;HPM_P2
2022/06/12 00:00:53;;;;;;;20.35;3.90;;;15.10;99.90;;;;;;5029961;28;20442;-68
2022/06/12 00:03:21;;;;;;;26.67;4.22;;;15.10;99.90;;;;;;5046391;28;20041;-68
2022/06/12 00:05:49;;;;;;;21.02;3.88;;;15.10;99.90;;;;;;5030440;28;20044;-68
2022/06/12 00:08:16;;;;;;;22.05;3.83;;;15.00;99.60;;;;;;5030608;28;20086;-68
2022/06/12 00:10:45;;;;;;;12.43;2.83;;;15.00;99.30;;;;;;5046632;28;20052;-68
2022/06/12 00:13:14;;;;;;;22.27;3.95;;;14.90;99.10;;;;;;5046069;28;20048;-68
2022/06/12 00:15:40;;;;;;;19.55;3.22;;;14.90;99.00;;;;;;5046887;28;20017;-68
2022/06/12 00:18:06;;;;;;;17.08;3.38;;;14.90;98.80;;;;;;5030698;28;20045;-68
2022/06/12 00:20:31;;;;;;;19.65;3.30;;;14.90;98.90;;;;;;5062712;28;20308;-68
2022/06/12 00:22:58;;;;;;;15.00;3.20;;;14.80;98.70;;;;;;5043173;28;20132;-68
2022/06/12 00:25:29;;;;;;;25.38;3.65;;;14.80;98.70;;;;;;5044339;28;20301;-68
2022/06/12 00:27:55;;;;;;;17.90;2.97;;;14.80;98.60;;;;;;5042636;28;20411;-68
2022/06/12 00:30:23;;;;;;;13.20;2.95;;;14.80;98.80;;;;;;5043347;28;20033;-68
2022/06/12 00:32:52;;;;;;;17.10;3.58;;;14.80;98.60;;;;;;5043061;28;20025;-68
2022/06/12 00:35:27;;;;;;;20.42;3.28;;;14.80;98.50;;;;;;5027279;28;20220;-68
2022/06/12 00:37:53;;;;;;;14.52;3.15;;;14.70;98.60;;;;;;5043574;28;20040;-68
2022/06/12 00:40:20;;;;;;;16.75;2.88;;;14.70;98.90;;;;;;5042826;28;20246;-68
2022/06/12 00:42:51;;;;;;;13.65;3.15;;;14.70;98.90;;;;;;5042671;28;20070;-68
2022/06/12 00:45:53;;;;;;;21.37;3.83;;;14.60;99.00;;;;;;5043166;28;20029;-68
2022/06/12 00:48:24;;;;;;;19.33;3.28;;;14.60;99.20;;;;;;5050756;28;20254;-68
2022/06/12 00:51:13;;;;;;;13.93;3.50;;;14.60;99.20;;;;;;5059182;28;20025;-68
2022/06/12 00:53:58;;;;;;;15.18;3.63;;;14.50;99.30;;;;;;5029106;28;20029;-68
2022/06/12 00:56:29;;;;;;;20.48;3.67;;;14.50;99.40;;;;;;5023808;28;20040;-68
2022/06/12 00:59:10;;;;;;;22.00;3.53;;;14.50;99.50;;;;;;5025263;28;20089;-68
2022/06/12 01:01:40;;;;;;;24.47;3.37;;;14.50;99.50;;;;;;5042831;28;20041;-68
2022/06/12 01:06:57;;;;;;;23.58;3.75;;;14.50;99.50;;;;;;5028858;28;20435;-68
2022/06/12 01:09:28;;;;;;;15.88;3.00;;;14.50;99.50;;;;;;5041986;28;20029;-68
2022/06/12 01:11:55;;;;;;;19.73;3.53;;;14.50;99.60;;;;;;5041673;28;20067;-68
2022/06/12 01:14:24;;;;;;;16.13;3.50;;;14.50;99.60;;;;;;5042837;28;20120;-68
2022/06/12 01:16:50;;;;;;;21.00;4.45;;;14.50;99.60;;;;;;5042212;28;20017;-68
2022/06/12 01:19:30;;;;;;;21.98;4.15;;;14.50;99.60;;;;;;5042314;28;20340;-68
2022/06/12 01:22:27;;;;;;;19.02;3.45;;;14.50;99.60;;;;;;5042432;28;20037;-68
2022/06/12 01:25:33;;;;;;;18.73;3.70;;;14.40;99.70;;;;;;5042480;28;20028;-68
2022/06/12 01:28:37;;;;;;;20.73;3.92;;;14.40;99.70;;;;;;5042420;28;20197;-68
2022/06/12 01:31:40;;;;;;;18.05;3.17;;;14.40;99.80;;;;;;5043022;28;20029;-68
2022/06/12 01:34:29;;;;;;;18.92;3.17;;;14.40;99.90;;;;;;5041505;28;20024;-68
2022/06/12 01:37:13;;;;;;;14.43;3.38;;;14.40;99.90;;;;;;5041443;28;20029;-68
2022/06/12 01:39:49;;;;;;;15.98;3.25;;;14.40;99.90;;;;;;5041335;28;20329;-68
2022/06/12 01:42:23;;;;;;;19.83;3.05;;;14.40;99.90;;;;;;5040990;28;20312;-68
2022/06/12 01:45:12;;;;;;;21.02;3.20;;;14.30;99.90;;;;;;5042396;28;20107;-68
2022/06/12 01:48:14;;;;;;;17.65;3.15;;;14.30;99.90;;;;;;5035392;28;20022;-68
2022/06/12 01:51:02;;;;;;;16.67;3.65;;;14.30;99.90;;;;;;5029291;28;20036;-68
2022/06/12 01:53:55;;;;;;;18.80;2.95;;;14.30;99.90;;;;;;5062175;28;20115;-68
2022/06/12 01:56:32;;;;;;;19.98;3.03;;;14.30;99.90;;;;;;5060034;28;20380;-68
2022/06/12 01:59:30;;;;;;;22.48;3.97;;;14.30;99.90;;;;;;5060172;28;20060;-68
2022/06/12 02:02:07;;;;;;;13.43;3.03;;;14.30;99.90;;;;;;5061790;28;20040;-68
2022/06/12 02:04:57;;;;;;;21.10;3.60;;;14.30;99.90;;;;;;5044844;28;20035;-68
2022/06/12 02:07:30;;;;;;;22.52;3.50;;;14.30;99.90;;;;;;5047287;28;20033;-68
2022/06/12 02:10:05;;;;;;;24.92;3.85;;;14.30;99.90;;;;;;5044317;28;20029;-68
2022/06/12 02:13:25;;;;;;;23.50;3.90;;;14.20;99.90;;;;;;5061234;28;20323;-68
2022/06/12 02:16:03;;;;;;;21.63;3.63;;;14.20;99.90;;;;;;5061237;28;20074;-68
2022/06/12 02:18:51;;;;;;;23.48;3.28;;;14.20;99.90;;;;;;5050445;28;20088;-68
2022/06/12 02:21:41;;;;;;;20.05;3.85;;;14.10;99.90;;;;;;5060512;28;20066;-68
2022/06/12 02:24:14;;;;;;;25.63;3.95;;;14.10;99.90;;;;;;5061147;28;20036;-68
2022/06/12 02:26:49;;;;;;;24.65;4.05;;;14.10;99.90;;;;;;5029040;28;20029;-68
2022/06/12 02:29:20;;;;;;;18.92;3.22;;;14.10;99.90;;;;;;5061822;28;20032;-68
2022/06/12 02:31:49;;;;;;;19.75;4.50;;;14.10;99.90;;;;;;5062523;28;20025;-68
2022/06/12 02:34:24;;;;;;;25.10;3.22;;;14.10;99.90;;;;;;5061557;28;20049;-68
2022/06/12 02:36:54;;;;;;;16.05;3.58;;;14.10;99.90;;;;;;5044523;28;20212;-68
2022/06/12 02:39:26;;;;;;;19.98;3.88;;;14.20;99.90;;;;;;5042910;28;20033;-68
2022/06/12 02:41:58;;;;;;;22.15;4.22;;;14.30;99.90;;;;;;5060452;28;20100;-68
2022/06/12 02:44:26;;;;;;;;;;;14.30;99.90;;;;;;5044024;28;20367;-68
2022/06/12 02:46:59;;;;;;;19.38;3.80;;;14.40;99.90;;;;;;5053153;28;20141;-67
2022/06/12 02:49:25;;;;;;;28.13;4.03;;;14.40;99.90;;;;;;5041606;28;20017;-68
2022/06/12 02:52:05;;;;;;;21.38;3.78;;;14.40;99.90;;;;;;5041189;28;20589;-68
2022/06/12 02:55:11;;;;;;;21.45;3.35;;;14.40;99.90;;;;;;5041255;28;20036;-68
2022/06/12 02:58:00;;;;;;;20.13;3.38;;;14.40;99.90;;;;;;5025234;28;20061;-68
2022/06/12 03:00:35;;;;;;;17.98;3.22;;;14.40;99.90;;;;;;5040434;28;20093;-68
2022/06/12 03:03:31;;;;;;;20.92;3.40;;;14.30;99.90;;;;;;5040085;28;20028;-68
2022/06/12 03:05:59;;;;;;;19.25;3.63;;;14.20;99.90;;;;;;5041065;28;20091;-68
2022/06/12 03:08:30;;;;;;;24.02;4.05;;;14.20;99.90;;;;;;5040871;28;20021;-68
2022/06/12 03:11:00;;;;;;;20.02;3.70;;;14.20;99.90;;;;;;5042015;28;20040;-67
2022/06/12 03:13:28;;;;;;;14.48;3.38;;;14.20;99.90;;;;;;5040640;28;20021;-67
2022/06/12 03:15:58;;;;;;;22.40;3.67;;;14.10;99.90;;;;;;5040169;28;20056;-67
2022/06/12 03:18:28;;;;;;;15.77;3.75;;;14.10;99.90;;;;;;5041949;28;20025;-67
2022/06/12 03:21:11;;;;;;;20.95;3.85;;;14.10;99.90;;;;;;5041816;28;20022;-67
2022/06/12 03:24:05;;;;;;;24.30;4.47;;;14.00;99.90;;;;;;5040868;28;20033;-67
2022/06/12 03:26:58;;;;;;;17.80;3.28;;;14.00;99.90;;;;;;5039982;28;20044;-68
2022/06/12 03:29:46;;;;;;;20.83;3.67;;;14.00;99.90;;;;;;5040036;28;20052;-67
2022/06/12 03:32:51;;;;;;;18.15;3.50;;;14.00;99.90;;;;;;5041138;28;20368;-67
2022/06/12 03:35:44;;;;;;;21.27;3.15;;;14.10;99.90;;;;;;5040425;28;20033;-67
2022/06/12 03:38:36;;;;;;;19.45;3.60;;;14.20;99.90;;;;;;5026332;28;20070;-68
2022/06/12 03:41:28;;;;;;;24.00;3.90;;;14.10;99.90;;;;;;5040270;28;20041;-67
2022/06/12 03:44:02;;;;;;;21.00;3.67;;;14.10;99.90;;;;;;5026347;28;20025;-67
2022/06/12 03:46:50;;;;;;;29.40;4.00;;;14.00;99.90;;;;;;5043341;28;20036;-67
2022/06/12 03:49:45;;;;;;;22.13;4.07;;;14.00;99.90;;;;;;5045980;28;20299;-67
2022/06/12 03:52:17;;;;;;;19.70;3.80;;;14.00;99.90;;;;;;5043995;28;20251;-67
2022/06/12 03:55:05;;;;;;;15.52;3.63;;;14.00;99.90;;;;;;5052304;28;20033;-68
2022/06/12 03:57:52;;;;;;;19.75;3.80;;;13.90;99.90;;;;;;5024122;28;20046;-68
2022/06/12 04:00:24;;;;;;;21.70;3.88;;;13.80;99.90;;;;;;5043419;28;20117;-67
2022/06/12 04:02:58;;;;;;;22.70;3.65;;;13.80;99.90;;;;;;5043146;28;20026;-67
2022/06/12 04:05:30;;;;;;;25.75;4.20;;;13.80;99.90;;;;;;5044669;28;20029;-67
2022/06/12 04:07:58;;;;;;;16.02;3.90;;;13.80;99.90;;;;;;5044053;28;20052;-67
2022/06/12 04:10:29;;;;;;;24.73;4.80;;;13.80;99.90;;;;;;5044362;28;20030;-68
2022/06/12 04:12:55;;;;;;;26.90;4.53;;;13.80;99.90;;;;;;5042056;28;20037;-67
2022/06/12 04:15:28;;;;;;;27.30;4.80;;;13.70;99.90;;;;;;5044361;28;20033;-68
2022/06/12 04:17:56;;;;;;;27.35;4.57;;;13.70;99.90;;;;;;5042151;28;20022;-67
2022/06/12 04:20:26;;;;;;;24.63;4.53;;;13.70;99.90;;;;;;5042033;28;20127;-68
2022/06/12 04:23:04;;;;;;;20.10;4.32;;;13.70;99.90;;;;;;5026281;28;20018;-68
2022/06/12 04:25:55;;;;;;;23.15;3.97;;;13.80;99.90;;;;;;5042592;28;20040;-67
2022/06/12 04:28:31;;;;;;;22.90;3.95;;;13.80;99.90;;;;;;5043456;28;20084;-68
2022/06/12 04:30:58;;;;;;;31.98;4.63;;;13.90;99.90;;;;;;5042442;28;20072;-67
2022/06/12 04:33:52;;;;;;;15.82;3.95;;;14.00;99.90;;;;;;5025514;28;20116;-67
2022/06/12 04:36:17;;;;;;;23.83;5.15;;;14.00;99.90;;;;;;5029667;28;20028;-67
2022/06/12 04:38:43;;;;;;;27.90;4.47;;;14.10;99.90;;;;;;5043388;28;20029;-67
2022/06/12 04:41:15;;;;;;;27.80;4.15;;;14.20;99.90;;;;;;5026413;28;20025;-67
2022/06/12 04:43:40;;;;;;;20.67;3.85;;;14.20;99.90;;;;;;5041498;28;20038;-67
2022/06/12 04:46:06;;;;;;;19.15;4.10;;;14.20;99.90;;;;;;5043635;28;20069;-67
2022/06/12 04:48:39;;;;;;;24.33;4.80;;;14.30;99.90;;;;;;5042292;28;20024;-67
2022/06/12 04:51:06;;;;;;;24.23;4.40;;;14.40;99.90;;;;;;5043286;28;20013;-68
2022/06/12 04:53:33;;;;;;;20.23;4.38;;;14.50;99.90;;;;;;5042484;28;20343;-68
2022/06/12 04:55:58;;;;;;;18.25;3.88;;;14.60;99.90;;;;;;5043162;28;20075;-68
2022/06/12 04:58:24;;;;;;;22.20;4.47;;;14.70;99.90;;;;;;5040010;28;20246;-67
2022/06/12 05:00:50;;;;;;;22.92;4.78;;;14.80;99.90;;;;;;5044194;28;20037;-67
2022/06/12 05:03:16;;;;;;;22.77;4.72;;;15.00;99.90;;;;;;5025626;28;20208;-67
2022/06/12 05:05:42;;;;;;;22.27;4.28;;;15.10;99.90;;;;;;5024748;28;20036;-68
2022/06/12 05:08:08;;;;;;;21.67;4.88;;;15.20;99.90;;;;;;5039922;28;20037;-68
2022/06/12 05:10:35;;;;;;;22.55;4.72;;;15.30;99.90;;;;;;5041894;28;20099;-67
2022/06/12 05:13:00;;;;;;;21.40;4.85;;;15.40;99.70;;;;;;5025620;28;20227;-68
2022/06/12 05:15:26;;;;;;;28.05;5.30;;;15.50;99.60;;;;;;5042681;28;20053;-67
2022/06/12 05:17:52;;;;;;;26.02;4.70;;;15.50;99.40;;;;;;5025171;28;20025;-68
2022/06/12 05:20:23;;;;;;;27.63;4.70;;;15.60;99.40;;;;;;5040766;28;20033;-67
2022/06/12 05:22:49;;;;;;;25.50;4.38;;;15.50;99.40;;;;;;5043119;28;20395;-67
2022/06/12 05:25:16;;;;;;;19.35;4.60;;;15.40;99.70;;;;;;5041952;28;20033;-67
2022/06/12 05:27:42;;;;;;;20.40;4.72;;;15.30;99.90;;;;;;5024960;28;20040;-67
2022/06/12 05:30:11;;;;;;;22.83;5.20;;;15.10;99.90;;;;;;5042850;28;20021;-67
2022/06/12 05:32:37;;;;;;;24.70;5.32;;;15.10;99.90;;;;;;5041159;28;20220;-68
2022/06/12 05:35:03;;;;;;;27.40;6.38;;;15.10;99.90;;;;;;5041578;28;20021;-68
2022/06/12 05:37:29;;;;;;;25.23;4.97;;;15.10;99.90;;;;;;5041382;28;20029;-68
2022/06/12 05:39:55;;;;;;;18.20;5.20;;;15.20;99.90;;;;;;5041629;28;20029;-68
2022/06/12 05:42:21;;;;;;;23.52;5.35;;;15.10;99.90;;;;;;5042901;28;20072;-68
2022/06/12 05:44:46;;;;;;;22.75;5.05;;;15.10;99.90;;;;;;5041645;28;20029;-68
2022/06/12 05:47:13;;;;;;;27.60;5.28;;;15.20;99.90;;;;;;5042032;28;20037;-67
2022/06/12 05:49:38;;;;;;;25.00;5.30;;;15.20;99.90;;;;;;5024972;28;20033;-67
2022/06/12 05:52:04;;;;;;;25.73;5.88;;;15.20;99.90;;;;;;5053100;28;20039;-67
2022/06/12 05:54:30;;;;;;;29.52;5.63;;;15.40;99.90;;;;;;5061583;28;20017;-68
2022/06/12 05:56:56;;;;;;;28.33;5.72;;;15.40;99.90;;;;;;5062306;28;20136;-67
2022/06/12 05:59:22;;;;;;;31.13;6.40;;;15.50;99.90;;;;;;5043511;28;20036;-67
2022/06/12 06:01:48;;;;;;;20.98;4.90;;;15.60;99.50;;;;;;5061804;28;20107;-67
2022/06/12 06:04:13;;;;;;;24.67;5.55;;;15.70;99.70;;;;;;5063195;28;20028;-67
2022/06/12 06:06:46;;;;;;;23.35;5.43;;;15.90;99.40;;;;;;5060932;28;20039;-68
2022/06/12 06:09:13;;;;;;;22.50;5.55;;;16.00;99.00;;;;;;5060675;28;20043;-67
2022/06/12 06:11:40;;;;;;;27.52;6.38;;;16.00;98.80;;;;;;5060720;28;20276;-68
2022/06/12 06:14:06;;;;;;;17.13;5.18;;;16.00;98.60;;;;;;5043773;28;20100;-67
2022/06/12 06:16:34;;;;;;;24.45;6.15;;;15.90;98.70;;;;;;5044453;28;20021;-67
2022/06/12 06:19:00;;;;;;;24.95;5.88;;;15.80;98.70;;;;;;5059928;28;20078;-67
2022/06/12 06:21:25;;;;;;;23.10;5.55;;;15.70;98.90;;;;;;5060767;28;20036;-67
2022/06/12 06:23:51;;;;;;;28.08;5.85;;;15.70;99.10;;;;;;5059892;28;20027;-67
2022/06/12 06:26:19;;;;;;;27.85;5.63;;;15.60;99.00;;;;;;5062330;28;20082;-68
2022/06/12 06:28:45;;;;;;;23.45;5.80;;;15.60;99.20;;;;;;5061693;28;20044;-67
2022/06/12 06:31:10;;;;;;;25.45;5.57;;;15.50;99.20;;;;;;5061896;28;20033;-67
2022/06/12 06:33:36;;;;;;;24.23;5.40;;;15.50;99.50;;;;;;5061583;28;20021;-67
2022/06/12 06:36:03;;;;;;;26.35;5.53;;;15.50;99.50;;;;;;5026910;28;20025;-67
2022/06/12 06:38:28;;;;;;;25.75;5.18;;;15.60;99.20;;;;;;5043452;28;20070;-67
2022/06/12 06:40:54;;;;;;;18.08;4.75;;;15.60;98.90;;;;;;5059978;28;20304;-67
2022/06/12 06:43:20;;;;;;;20.13;5.22;;;15.60;98.80;;;;;;5060794;28;20025;-67
2022/06/12 06:48:32;;;;;;;17.80;4.80;;;15.70;98.60;;;;;;5059638;28;20037;-68
2022/06/12 06:50:58;;;;;;;18.70;5.03;;;15.80;98.10;;;;;;5055561;28;20333;-68
2022/06/12 06:53:25;;;;;;;20.00;4.15;;;15.90;97.40;;;;;;5040307;28;20036;-68
2022/06/12 06:55:51;;;;;;;16.45;4.90;;;16.10;97.00;;;;;;5039418;28;20180;-68
2022/06/12 06:58:20;;;;;;;22.38;5.38;;;16.20;97.00;;;;;;5023779;28;20075;-67
2022/06/12 07:00:48;;;;;;;21.42;5.85;;;16.30;97.00;;;;;;5006534;28;20346;-67
2022/06/12 07:03:14;;;;;;;22.50;5.18;;;16.50;97.00;;;;;;5022594;28;20041;-68
2022/06/12 07:05:41;;;;;;;14.23;5.28;;;16.60;96.80;;;;;;5040291;28;20079;-67
2022/06/12 07:08:08;;;;;;;23.50;5.97;;;16.60;95.70;;;;;;5040064;28;20080;-69
2022/06/12 07:10:35;;;;;;;21.38;5.72;;;16.40;95.40;;;;;;5040056;28;20236;-68
2022/06/12 07:13:01;;;;;;;20.73;6.50;;;16.20;96.00;;;;;;5040047;28;20304;-70
2022/06/12 07:15:29;;;;;;;21.13;6.28;;;16.20;96.50;;;;;;5039452;28;20036;-68
2022/06/12 07:17:55;;;;;;;21.60;5.95;;;16.30;96.40;;;;;;5041270;28;20022;-68
2022/06/12 07:20:24;;;;;;;19.40;5.80;;;16.60;95.90;;;;;;5041131;28;20052;-67
2022/06/12 07:22:50;;;;;;;24.95;6.40;;;16.80;95.40;;;;;;5006947;28;20304;-68
2022/06/12 07:25:17;;;;;;;22.45;5.07;;;17.00;95.10;;;;;;5041089;28;20049;-68
2022/06/12 07:27:44;;;;;;;19.33;5.70;;;17.00;94.40;;;;;;5040124;28;20308;-68
2022/06/12 07:30:13;;;;;;;19.05;5.60;;;17.00;94.60;;;;;;5040442;28;20030;-69
2022/06/12 07:32:39;;;;;;;14.90;4.43;;;17.20;94.60;;;;;;5044050;28;20021;-69
2022/06/12 07:35:05;;;;;;;16.75;5.32;;;17.30;93.80;;;;;;5044011;28;20040;-69
2022/06/12 07:37:32;;;;;;;16.38;4.72;;;17.50;93.80;;;;;;5044926;28;20283;-68
2022/06/12 07:40:00;;;;;;;19.70;5.00;;;17.50;93.40;;;;;;5043949;28;20208;-69
2022/06/12 07:42:26;;;;;;;16.63;4.63;;;17.50;93.50;;;;;;5044871;28;20347;-69
2022/06/12 07:44:52;;;;;;;18.38;4.18;;;17.30;93.00;;;;;;5045083;28;20027;-67
2022/06/12 07:47:19;;;;;;;16.52;4.20;;;17.10;93.30;;;;;;5044172;28;20025;-68
2022/06/12 07:49:45;;;;;;;18.90;4.28;;;16.80;93.90;;;;;;5043525;28;20033;-70
2022/06/12 07:52:12;;;;;;;17.92;4.32;;;16.70;94.20;;;;;;5055166;28;20075;-68
2022/06/12 07:54:38;;;;;;;15.23;3.47;;;16.80;94.20;;;;;;5065084;28;20024;-69
2022/06/12 07:57:05;;;;;;;15.32;3.65;;;16.80;94.10;;;;;;5063323;28;20025;-68
2022/06/12 07:59:31;;;;;;;14.93;3.80;;;16.80;93.10;;;;;;5047447;28;20185;-69
2022/06/12 08:01:56;;;;;;;11.95;2.90;;;16.80;92.90;;;;;;5062270;28;20064;-68
2022/06/12 08:04:23;;;;;;;15.15;2.85;;;16.70;92.60;;;;;;5065181;28;20189;-68
2022/06/12 08:06:49;;;;;;;15.68;3.20;;;16.80;92.50;;;;;;5046881;28;20032;-68
2022/06/12 08:09:15;;;;;;;14.13;3.25;;;16.90;92.50;;;;;;5064008;28;20028;-68
2022/06/12 08:11:44;;;;;;;13.70;2.72;;;17.10;92.40;;;;;;5064753;28;20068;-68
2022/06/12 08:14:10;;;;;;;14.40;3.55;;;17.10;92.50;;;;;;5064431;28;20330;-68
2022/06/12 08:16:36;;;;;;;8.05;2.15;;;17.10;92.30;;;;;;5063683;28;20078;-68
2022/06/12 08:19:03;;;;;;;12.95;3.17;;;17.20;92.10;;;;;;5046231;28;20020;-68
2022/06/12 08:21:29;;;;;;;15.38;3.38;;;17.30;91.80;;;;;;5063489;28;20080;-68
2022/06/12 08:23:57;;;;;;;13.02;2.92;;;17.30;91.40;;;;;;5064515;28;20345;-68
2022/06/12 08:26:33;;;;;;;10.10;2.70;;;17.30;91.80;;;;;;5046986;28;20070;-69
2022/06/12 08:29:03;;;;;;;11.07;2.58;;;17.30;91.20;;;;;;5030449;28;20029;-67
2022/06/12 08:31:36;;;;;;;13.07;3.28;;;17.30;91.30;;;;;;5064117;28;20034;-67
2022/06/12 08:34:06;;;;;;;13.00;2.72;;;17.20;91.70;;;;;;5062757;28;20025;-69
2022/06/12 08:36:33;;;;;;;14.52;2.83;;;17.20;91.70;;;;;;5029801;28;20101;-69
2022/06/12 08:38:59;;;;;;;9.43;2.28;;;17.30;90.50;;;;;;5064142;28;20033;-69
2022/06/12 08:41:58;;;;;;;12.45;2.70;;;17.40;90.80;;;;;;5063751;28;20029;-69
2022/06/12 08:44:46;;;;;;;12.95;2.30;;;17.40;89.80;;;;;;5062341;28;20025;-69
2022/06/12 08:47:28;;;;;;;11.52;2.30;;;17.50;89.70;;;;;;5051699;28;20029;-69
2022/06/12 08:50:31;;;;;;;8.75;2.33;;;17.70;87.60;;;;;;5044315;28;20045;-69
2022/06/12 08:53:10;;;;;;;10.02;1.88;;;17.50;87.50;;;;;;5046408;28;20052;-69
2022/06/12 08:55:53;;;;;;;8.20;2.00;;;17.50;88.30;;;;;;5047536;28;20087;-69
2022/06/12 08:58:39;;;;;;;8.60;2.50;;;17.70;87.40;;;;;;5063179;28;20080;-69
2022/06/12 09:01:05;;;;;;;11.65;2.50;;;17.70;87.70;;;;;;5060957;28;20036;-71
2022/06/12 09:03:38;;;;;;;10.30;2.20;;;17.90;88.70;;;;;;5063450;28;20067;-68
2022/06/12 09:06:43;;;;;;;11.35;2.75;;;17.90;89.30;;;;;;5045973;28;20162;-68
2022/06/12 09:09:48;;;;;;;16.08;3.22;;;17.80;89.90;;;;;;5062049;28;20020;-69
2022/06/12 09:12:20;;;;;;;12.75;2.88;;;17.80;90.00;;;;;;5052451;28;20219;-68
2022/06/12 09:15:26;;;;;;;9.93;2.10;;;17.70;88.30;;;;;;5028564;28;20024;-69
2022/06/12 09:18:16;;;;;;;9.30;2.05;;;17.60;84.40;;;;;;5051020;28;20025;-69
2022/06/12 09:21:04;;;;;;;11.43;2.17;;;17.70;85.10;;;;;;5047872;28;20240;-69
2022/06/12 09:24:10;;;;;;;13.15;2.28;;;18.00;85.90;;;;;;5047741;28;20107;-69
2022/06/12 09:26:58;;;;;;;9.63;2.20;;;18.20;84.20;;;;;;5050802;28;20329;-69
2022/06/12 09:29:37;;;;;;;7.65;2.25;;;18.10;83.00;;;;;;5063408;28;20075;-68
2022/06/12 09:32:42;;;;;;;9.55;2.88;;;18.00;84.10;;;;;;5062547;28;20029;-69
2022/06/12 09:35:39;;;;;;;8.10;2.40;;;18.00;84.00;;;;;;5051161;28;20025;-69
2022/06/12 09:38:40;;;;;;;5.38;1.63;;;17.90;84.80;;;;;;5061485;28;20234;-68
2022/06/12 09:41:21;;;;;;;9.82;2.03;;;17.90;84.60;;;;;;5047285;28;20032;-68
2022/06/12 09:44:07;;;;;;;11.52;2.15;;;17.80;84.20;;;;;;5061312;28;20320;-70
2022/06/12 09:46:42;;;;;;;8.82;2.05;;;17.80;85.50;;;;;;5061220;28;20033;-69
2022/06/12 09:49:34;;;;;;;8.18;2.00;;;18.00;85.10;;;;;;5062707;28;20029;-68
2022/06/12 09:52:29;;;;;;;9.70;2.00;;;18.30;83.70;;;;;;5050892;28;20017;-71
2022/06/12 09:55:19;;;;;;;6.82;1.90;;;18.70;82.20;;;;;;5041157;28;20333;-70
2022/06/12 09:58:24;;;;;;;6.93;2.00;;;18.90;81.30;;;;;;5042040;28;20248;-70
2022/06/12 10:00:58;;;;;;;15.50;2.28;;;18.90;81.60;;;;;;5040895;28;20410;-70
2022/06/12 10:03:33;;;;;;;8.70;2.20;;;18.70;81.30;;;;;;5038107;28;20480;-70
2022/06/12 10:06:06;;;;;;;11.38;2.60;;;18.50;81.70;;;;;;5042100;28;20040;-70
2022/06/12 10:08:43;;;;;;;10.02;2.25;;;18.30;81.80;;;;;;5024709;28;20033;-70
2022/06/12 10:11:16;;;;;;;13.73;2.40;;;18.30;83.90;;;;;;5041410;28;20049;-69
2022/06/12 10:14:04;;;;;;;10.00;2.33;;;18.40;84.30;;;;;;5040031;28;20044;-70
2022/06/12 10:16:37;;;;;;;9.75;2.25;;;18.70;83.50;;;;;;5041630;28;20025;-70
2022/06/12 10:19:26;;;;;;;13.40;2.60;;;18.90;82.80;;;;;;5040148;28;20092;-69
2022/06/12 10:21:55;;;;;;;13.80;2.58;;;18.90;82.70;;;;;;5040779;28;20030;-69
2022/06/12 10:24:21;;;;;;;8.30;2.13;;;18.80;82.00;;;;;;5040976;28;20041;-69
2022/06/12 10:26:59;;;;;;;10.65;2.28;;;19.00;81.80;;;;;;5040779;28;20030;-69
2022/06/12 10:29:28;;;;;;;8.75;2.35;;;19.20;81.10;;;;;;5039854;28;20568;-69
2022/06/12 10:32:04;;;;;;;9.73;2.67;;;19.10;80.20;;;;;;5041049;28;20021;-69
2022/06/12 10:34:32;;;;;;;10.40;2.20;;;19.10;80.80;;;;;;5040971;28;20021;-69
2022/06/12 10:37:20;;;;;;;9.00;2.50;;;19.00;79.50;;;;;;5040122;28;20037;-69
2022/06/12 10:39:59;;;;;;;12.13;2.53;;;19.20;80.10;;;;;;5040285;28;20038;-69
2022/06/12 10:42:39;;;;;;;10.20;2.30;;;19.10;80.40;;;;;;5042139;28;20183;-70
2022/06/12 10:45:05;;;;;;;13.15;2.63;;;18.90;80.50;;;;;;5039378;28;20028;-69
2022/06/12 10:47:32;;;;;;;9.63;2.38;;;18.70;80.90;;;;;;5054363;28;20127;-69
2022/06/12 10:50:24;;;;;;;14.05;3.05;;;18.80;80.70;;;;;;5059946;28;20079;-71
2022/06/12 10:52:59;;;;;;;;;;;18.90;80.20;;;;;;5053365;28;20079;-69
2022/06/12 10:56:05;;;;;;;9.88;2.50;;;19.00;78.90;;;;;;5056244;28;19909;-69
2022/06/12 10:59:00;;;;;;;7.25;1.95;;;19.10;78.50;;;;;;5039418;28;20057;-69
2022/06/12 11:01:41;;;;;;;14.07;2.85;;;19.10;78.10;;;;;;5040446;28;20113;-69
2022/06/12 11:04:21;;;;;;;9.18;2.60;;;19.40;78.20;;;;;;5038082;28;20017;-69
2022/06/12 11:07:03;;;;;;;12.15;2.85;;;19.50;77.90;;;;;;5039792;28;20033;-69
2022/06/12 11:09:54;;;;;;;10.07;2.78;;;19.50;77.00;;;;;;5024165;28;20088;-69
2022/06/12 11:13:00;;;;;;;15.32;2.80;;;19.30;78.00;;;;;;5040321;28;20089;-69
2022/06/12 11:16:05;;;;;;;12.75;2.90;;;19.20;78.20;;;;;;5038765;28;20048;-70
2022/06/12 11:19:11;;;;;;;14.30;3.05;;;19.20;78.50;;;;;;5039244;28;20029;-70
2022/06/12 11:21:52;;;;;;;12.40;2.85;;;19.10;78.20;;;;;;5039347;28;20101;-70
2022/06/12 11:24:24;;;;;;;11.98;2.95;;;18.90;77.70;;;;;;5040048;28;20033;-70
2022/06/12 11:27:20;;;;;;;13.02;2.97;;;18.80;79.10;;;;;;5040110;28;20305;-70
2022/06/12 11:30:21;;;;;;;12.05;2.92;;;18.80;79.50;;;;;;5026029;28;20033;-70
2022/06/12 11:33:25;;;;;;;11.65;2.63;;;18.70;80.30;;;;;;5040264;28;20029;-69
2022/06/12 11:36:02;;;;;;;13.88;2.88;;;18.70;80.70;;;;;;5039848;28;20056;-68
2022/06/12 11:38:56;;;;;;;15.75;2.60;;;18.80;80.20;;;;;;5039359;28;20033;-69
2022/06/12 11:41:39;;;;;;;13.10;2.42;;;19.00;79.60;;;;;;5039485;28;20167;-69
2022/06/12 11:44:38;;;;;;;17.60;2.58;;;19.00;78.70;;;;;;5039808;28;20212;-69
2022/06/12 11:47:29;;;;;;;16.75;3.03;;;19.10;78.70;;;;;;5040624;28;20021;-69
2022/06/12 11:50:34;;;;;;;10.93;2.38;;;18.90;78.70;;;;;;5039148;28;20325;-69
2022/06/12 11:53:40;;;;;;;13.57;2.78;;;19.00;79.60;;;;;;5039993;28;20033;-68
2022/06/12 11:56:42;;;;;;;10.95;2.95;;;19.10;80.40;;;;;;5014225;28;20029;-68
2022/06/12 11:59:22;;;;;;;15.65;3.17;;;19.30;82.40;;;;;;5039189;28;20057;-71
2022/06/12 12:02:13;;;;;;;11.88;2.95;;;19.60;82.80;;;;;;5041318;28;20064;-70
2022/06/12 12:05:02;;;;;;;19.30;4.72;;;19.70;79.00;;;;;;5037547;28;20502;-69
2022/06/12 12:08:07;;;;;;;11.25;2.47;;;19.60;81.10;;;;;;5039588;28;20045;-69
2022/06/12 12:10:59;;;;;;;14.18;3.00;;;19.70;78.40;;;;;;5015076;28;20022;-69
2022/06/12 12:13:29;;;;;;;15.15;3.25;;;19.50;81.20;;;;;;5040634;28;20032;-69
2022/06/12 12:16:00;;;;;;;13.65;3.03;;;19.50;82.20;;;;;;5041028;28;20269;-70
2022/06/12 12:18:38;;;;;;;13.93;3.33;;;19.40;83.00;;;;;;5045042;28;20025;-68
2022/06/12 12:21:11;;;;;;;17.13;3.35;;;19.40;83.60;;;;;;5026586;28;20037;-70
2022/06/12 12:23:43;;;;;;;12.18;2.78;;;19.50;83.40;;;;;;5026544;28;20080;-70
2022/06/12 12:26:33;;;;;;;15.80;2.80;;;19.40;82.30;;;;;;5042966;28;20017;-70
2022/06/12 12:29:02;;;;;;;17.67;2.95;;;19.40;81.90;;;;;;5027149;28;20053;-69
2022/06/12 12:31:29;;;;;;;18.40;3.97;;;19.40;82.70;;;;;;5043832;28;20096;-71
2022/06/12 12:33:57;;;;;;;11.80;2.78;;;19.50;83.60;;;;;;5043119;28;20032;-69
2022/06/12 12:42:36;;;;;;;14.48;2.63;;;19.60;82.30;;;;;;5019281;28;20021;-68
2022/06/12 12:45:28;;;;;;;20.70;3.38;;;19.40;81.50;;;;;;5010133;28;20297;-69
2022/06/12 12:48:06;;;;;;;19.95;4.15;;;19.40;82.10;;;;;;5042351;28;20028;-70
2022/06/12 12:50:53;;;;;;;20.80;3.95;;;19.30;83.10;;;;;;5026804;28;20091;-69
2022/06/12 12:53:32;;;;;;;14.43;3.63;;;19.40;82.20;;;;;;5057142;28;20030;-71
2022/06/12 12:56:09;;;;;;;14.38;3.20;;;19.40;82.20;;;;;;5026514;28;20029;-69
2022/06/12 12:58:40;;;;;;;15.02;3.45;;;19.50;81.80;;;;;;5043518;28;20399;-69
2022/06/12 13:01:21;;;;;;;16.10;3.75;;;19.30;82.30;;;;;;5043274;28;20065;-67
2022/06/12 13:03:51;;;;;;;12.00;2.95;;;19.30;83.20;;;;;;5043905;28;20029;-68
2022/06/12 13:06:32;;;;;;;14.02;3.08;;;19.50;83.00;;;;;;5041225;28;20051;-70
2022/06/12 13:09:37;;;;;;;15.63;2.97;;;19.50;83.20;;;;;;5025738;28;20104;-70
2022/06/12 13:12:15;;;;;;;16.10;3.17;;;19.50;83.40;;;;;;5030879;28;20347;-70
2022/06/12 13:15:12;;;;;;;9.32;2.97;;;19.40;84.30;;;;;;5042656;28;20029;-70
2022/06/12 13:18:07;;;;;;;15.32;3.45;;;19.60;82.10;;;;;;5041125;28;20052;-69
2022/06/12 13:20:44;;;;;;;13.13;3.10;;;19.80;81.50;;;;;;5041966;28;20033;-69
2022/06/12 13:23:50;;;;;;;11.75;2.88;;;19.80;81.30;;;;;;5042109;28;20025;-69
2022/06/12 13:26:19;;;;;;;16.10;3.30;;;19.80;80.80;;;;;;5030630;28;20029;-68
2022/06/12 13:28:54;;;;;;;20.08;3.72;;;19.70;80.40;;;;;;5041539;28;20100;-68
2022/06/12 13:31:20;;;;;;;14.48;3.08;;;19.80;80.50;;;;;;5026505;28;20022;-70
2022/06/12 13:33:56;;;;;;;18.52;3.33;;;19.80;80.50;;;;;;5025482;28;20033;-70
2022/06/12 13:36:32;;;;;;;16.80;3.42;;;19.80;80.70;;;;;;5041846;28;20192;-70
2022/06/12 13:39:01;;;;;;;15.10;3.10;;;19.90;80.20;;;;;;5043451;28;20025;-70